sensor_id;sensor_type;location;lat;lon;timestamp;temperature;humidity
16521;DHT22;8373;48.110;11.522;2023-04-25T00:01:34;11.10;62.80
16521;DHT22;8373;48.110;11.522;2023-04-25T00:04:01;11.10;62.70
16521;DHT22;8373;48.110;11.522;2023-04-25T00:06:29;11.20;63.00
16521;DHT22;8373;48.110;11.522;2023-04-25T00:08:58;11.20;62.90
16521;DHT22;8373;48.110;11.522;2023-04-25T00:11:25;11.30;62.80
16521;DHT22;8373;48.110;11.522;2023-04-25T00:13:52;11.30;62.60
16521;DHT22;8373;48.110;11.522;2023-04-25T00:16:19;11.30;62.50
16521;DHT22;8373;48.110;11.522;2023-04-25T00:18:46;11.20;62.50
16521;DHT22;8373;48.110;11.522;2023-04-25T00:21:17;11.20;62.50
16521;DHT22;8373;48.110;11.522;2023-04-25T00:23:45;11.30;62.90
16521;DHT22;8373;48.110;11.522;2023-04-25T00:26:13;11.30;62.80
16521;DHT22;8373;48.110;11.522;2023-04-25T00:28:40;11.40;62.50
16521;DHT22;8373;48.110;11.522;2023-04-25T00:31:07;11.40;62.10
16521;DHT22;8373;48.110;11.522;2023-04-25T00:33:34;11.30;62.30
16521;DHT22;8373;48.110;11.522;2023-04-25T00:36:01;11.40;62.30
16521;DHT22;8373;48.110;11.522;2023-04-25T00:38:28;11.40;62.30
16521;DHT22;8373;48.110;11.522;2023-04-25T00:40:55;11.40;62.10
16521;DHT22;8373;48.110;11.522;2023-04-25T00:43:26;11.40;62.30
16521;DHT22;8373;48.110;11.522;2023-04-25T00:45:53;11.40;62.10
16521;DHT22;8373;48.110;11.522;2023-04-25T00:48:22;11.40;62.10
16521;DHT22;8373;48.110;11.522;2023-04-25T00:50:52;11.40;62.10
16521;DHT22;8373;48.110;11.522;2023-04-25T00:53:19;11.40;61.90
16521;DHT22;8373;48.110;11.522;2023-04-25T00:55:46;11.40;62.20
16521;DHT22;8373;48.110;11.522;2023-04-25T00:58:16;11.40;62.10
16521;DHT22;8373;48.110;11.522;2023-04-25T01:00:45;11.40;62.10
16521;DHT22;8373;48.110;11.522;2023-04-25T01:03:13;11.30;62.00
16521;DHT22;8373;48.110;11.522;2023-04-25T01:05:42;11.30;62.20
16521;DHT22;8373;48.110;11.522;2023-04-25T01:08:09;11.20;62.10
16521;DHT22;8373;48.110;11.522;2023-04-25T01:10:36;11.20;62.30
16521;DHT22;8373;48.110;11.522;2023-04-25T01:13:03;11.10;62.30
16521;DHT22;8373;48.110;11.522;2023-04-25T01:15:30;11.10;62.60
16521;DHT22;8373;48.110;11.522;2023-04-25T01:17:59;11.00;62.60
16521;DHT22;8373;48.110;11.522;2023-04-25T01:20:26;10.90;62.90
16521;DHT22;8373;48.110;11.522;2023-04-25T01:22:55;10.90;63.20
16521;DHT22;8373;48.110;11.522;2023-04-25T01:25:22;10.90;63.30
16521;DHT22;8373;48.110;11.522;2023-04-25T01:27:49;10.90;63.40
16521;DHT22;8373;48.110;11.522;2023-04-25T01:30:17;11.00;63.10
16521;DHT22;8373;48.110;11.522;2023-04-25T01:32:44;11.00;63.30
16521;DHT22;8373;48.110;11.522;2023-04-25T01:35:12;11.10;63.50
16521;DHT22;8373;48.110;11.522;2023-04-25T01:37:40;11.10;63.00
16521;DHT22;8373;48.110;11.522;2023-04-25T01:40:10;11.20;62.80
16521;DHT22;8373;48.110;11.522;2023-04-25T01:42:40;11.20;62.60
16521;DHT22;8373;48.110;11.522;2023-04-25T01:45:09;11.20;62.10
16521;DHT22;8373;48.110;11.522;2023-04-25T01:47:36;11.10;62.40
16521;DHT22;8373;48.110;11.522;2023-04-25T01:50:04;11.10;62.30
16521;DHT22;8373;48.110;11.522;2023-04-25T01:52:31;11.10;62.20
16521;DHT22;8373;48.110;11.522;2023-04-25T01:54:59;11.10;62.00
16521;DHT22;8373;48.110;11.522;2023-04-25T01:57:29;11.10;62.30
16521;DHT22;8373;48.110;11.522;2023-04-25T01:59:58;11.10;62.30
16521;DHT22;8373;48.110;11.522;2023-04-25T02:02:25;11.10;62.10
16521;DHT22;8373;48.110;11.522;2023-04-25T02:04:52;11.10;62.10
16521;DHT22;8373;48.110;11.522;2023-04-25T02:07:20;11.00;61.90
16521;DHT22;8373;48.110;11.522;2023-04-25T02:09:47;11.00;61.90
16521;DHT22;8373;48.110;11.522;2023-04-25T02:12:14;11.00;61.80
16521;DHT22;8373;48.110;11.522;2023-04-25T02:14:42;11.00;62.30
16521;DHT22;8373;48.110;11.522;2023-04-25T02:17:09;10.90;62.00
16521;DHT22;8373;48.110;11.522;2023-04-25T02:19:38;10.90;62.30
16521;DHT22;8373;48.110;11.522;2023-04-25T02:22:05;10.90;62.40
16521;DHT22;8373;48.110;11.522;2023-04-25T02:24:32;10.90;62.10
16521;DHT22;8373;48.110;11.522;2023-04-25T02:27:00;10.90;62.20
16521;DHT22;8373;48.110;11.522;2023-04-25T02:29:27;10.90;62.10
16521;DHT22;8373;48.110;11.522;2023-04-25T02:31:55;10.90;61.90
16521;DHT22;8373;48.110;11.522;2023-04-25T02:34:22;10.90;62.30
16521;DHT22;8373;48.110;11.522;2023-04-25T02:36:49;10.90;62.30
16521;DHT22;8373;48.110;11.522;2023-04-25T02:39:16;10.80;61.90
16521;DHT22;8373;48.110;11.522;2023-04-25T02:41:43;10.70;62.00
16521;DHT22;8373;48.110;11.522;2023-04-25T02:44:10;10.70;62.20
16521;DHT22;8373;48.110;11.522;2023-04-25T02:46:37;10.70;62.40
16521;DHT22;8373;48.110;11.522;2023-04-25T02:49:06;10.60;62.30
16521;DHT22;8373;48.110;11.522;2023-04-25T02:51:33;10.60;62.20
16521;DHT22;8373;48.110;11.522;2023-04-25T02:53:59;10.60;62.30
16521;DHT22;8373;48.110;11.522;2023-04-25T02:56:26;10.60;62.30
16521;DHT22;8373;48.110;11.522;2023-04-25T02:58:53;10.60;62.20
16521;DHT22;8373;48.110;11.522;2023-04-25T03:01:21;10.60;62.30
16521;DHT22;8373;48.110;11.522;2023-04-25T03:03:47;10.70;62.30
16521;DHT22;8373;48.110;11.522;2023-04-25T03:06:16;10.60;61.80
16521;DHT22;8373;48.110;11.522;2023-04-25T03:08:43;10.60;62.10
16521;DHT22;8373;48.110;11.522;2023-04-25T03:11:10;10.60;62.00
16521;DHT22;8373;48.110;11.522;2023-04-25T03:13:37;10.40;61.60
16521;DHT22;8373;48.110;11.522;2023-04-25T03:16:04;10.30;62.70
16521;DHT22;8373;48.110;11.522;2023-04-25T03:18:31;10.30;63.90
16521;DHT22;8373;48.110;11.522;2023-04-25T03:20:58;10.10;64.60
16521;DHT22;8373;48.110;11.522;2023-04-25T03:23:26;10.10;65.60
16521;DHT22;8373;48.110;11.522;2023-04-25T03:25:53;10.00;65.10
16521;DHT22;8373;48.110;11.522;2023-04-25T03:28:20;10.00;65.60
16521;DHT22;8373;48.110;11.522;2023-04-25T03:30:47;9.90;67.30
16521;DHT22;8373;48.110;11.522;2023-04-25T03:33:14;9.80;67.70
16521;DHT22;8373;48.110;11.522;2023-04-25T03:35:41;9.80;68.20
16521;DHT22;8373;48.110;11.522;2023-04-25T03:38:08;9.70;67.90
16521;DHT22;8373;48.110;11.522;2023-04-25T03:40:36;9.60;68.30
16521;DHT22;8373;48.110;11.522;2023-04-25T03:43:03;9.50;68.80
16521;DHT22;8373;48.110;11.522;2023-04-25T03:45:30;9.50;69.20
16521;DHT22;8373;48.110;11.522;2023-04-25T03:47:57;9.40;69.10
16521;DHT22;8373;48.110;11.522;2023-04-25T03:50:24;9.40;69.60
16521;DHT22;8373;48.110;11.522;2023-04-25T03:52:51;9.40;69.50
16521;DHT22;8373;48.110;11.522;2023-04-25T03:55:18;9.40;69.50
16521;DHT22;8373;48.110;11.522;2023-04-25T03:57:46;9.50;70.00
16521;DHT22;8373;48.110;11.522;2023-04-25T04:00:14;9.40;69.60
16521;DHT22;8373;48.110;11.522;2023-04-25T04:02:41;9.30;70.20
16521;DHT22;8373;48.110;11.522;2023-04-25T04:05:08;9.40;70.30
16521;DHT22;8373;48.110;11.522;2023-04-25T04:07:35;9.40;70.50
16521;DHT22;8373;48.110;11.522;2023-04-25T04:10:06;9.40;70.30
16521;DHT22;8373;48.110;11.522;2023-04-25T04:12:33;9.30;70.40
16521;DHT22;8373;48.110;11.522;2023-04-25T04:15:02;9.40;70.70
16521;DHT22;8373;48.110;11.522;2023-04-25T04:17:29;9.50;71.10
16521;DHT22;8373;48.110;11.522;2023-04-25T04:19:56;9.40;70.70
16521;DHT22;8373;48.110;11.522;2023-04-25T04:22:23;9.30;70.60
16521;DHT22;8373;48.110;11.522;2023-04-25T04:24:51;9.40;71.40
16521;DHT22;8373;48.110;11.522;2023-04-25T04:27:19;9.40;71.40
16521;DHT22;8373;48.110;11.522;2023-04-25T04:29:47;9.40;71.20
16521;DHT22;8373;48.110;11.522;2023-04-25T04:32:16;9.40;71.20
16521;DHT22;8373;48.110;11.522;2023-04-25T04:34:44;9.40;71.60
16521;DHT22;8373;48.110;11.522;2023-04-25T04:37:12;9.50;71.60
16521;DHT22;8373;48.110;11.522;2023-04-25T04:39:40;9.60;71.40
16521;DHT22;8373;48.110;11.522;2023-04-25T04:42:07;9.70;71.10
16521;DHT22;8373;48.110;11.522;2023-04-25T04:44:34;9.70;70.70
16521;DHT22;8373;48.110;11.522;2023-04-25T04:47:02;9.70;70.80
16521;DHT22;8373;48.110;11.522;2023-04-25T04:49:33;9.70;70.90
16521;DHT22;8373;48.110;11.522;2023-04-25T04:52:00;9.60;70.50
16521;DHT22;8373;48.110;11.522;2023-04-25T04:54:27;9.40;70.60
16521;DHT22;8373;48.110;11.522;2023-04-25T04:56:54;9.30;71.30
16521;DHT22;8373;48.110;11.522;2023-04-25T04:59:20;9.30;71.40
16521;DHT22;8373;48.110;11.522;2023-04-25T05:01:47;9.30;71.70
16521;DHT22;8373;48.110;11.522;2023-04-25T05:04:14;9.50;72.00
16521;DHT22;8373;48.110;11.522;2023-04-25T05:06:43;9.60;71.10
16521;DHT22;8373;48.110;11.522;2023-04-25T05:09:10;9.60;71.00
16521;DHT22;8373;48.110;11.522;2023-04-25T05:11:37;9.70;71.00
16521;DHT22;8373;48.110;11.522;2023-04-25T05:14:04;9.60;70.60
16521;DHT22;8373;48.110;11.522;2023-04-25T05:16:31;9.50;70.90
16521;DHT22;8373;48.110;11.522;2023-04-25T05:18:58;9.40;71.40
16521;DHT22;8373;48.110;11.522;2023-04-25T05:21:25;9.40;71.90
16521;DHT22;8373;48.110;11.522;2023-04-25T05:23:54;9.40;72.30
16521;DHT22;8373;48.110;11.522;2023-04-25T05:26:21;9.40;72.00
16521;DHT22;8373;48.110;11.522;2023-04-25T05:28:49;9.50;72.00
16521;DHT22;8373;48.110;11.522;2023-04-25T05:31:16;9.50;71.80
16521;DHT22;8373;48.110;11.522;2023-04-25T05:33:43;9.60;71.80
16521;DHT22;8373;48.110;11.522;2023-04-25T05:36:10;9.60;71.60
16521;DHT22;8373;48.110;11.522;2023-04-25T05:38:37;9.70;72.60
16521;DHT22;8373;48.110;11.522;2023-04-25T05:41:05;9.70;72.40
16521;DHT22;8373;48.110;11.522;2023-04-25T05:43:32;9.70;72.20
16521;DHT22;8373;48.110;11.522;2023-04-25T05:45:59;9.90;72.80
16521;DHT22;8373;48.110;11.522;2023-04-25T05:48:26;10.00;74.10
16521;DHT22;8373;48.110;11.522;2023-04-25T05:50:53;10.20;75.00
16521;DHT22;8373;48.110;11.522;2023-04-25T05:53:21;10.40;75.00
16521;DHT22;8373;48.110;11.522;2023-04-25T05:55:48;10.40;72.70
16521;DHT22;8373;48.110;11.522;2023-04-25T05:58:16;10.50;74.20
16521;DHT22;8373;48.110;11.522;2023-04-25T06:00:43;10.40;73.10
16521;DHT22;8373;48.110;11.522;2023-04-25T06:03:11;10.50;74.90
16521;DHT22;8373;48.110;11.522;2023-04-25T06:05:40;10.50;74.60
16521;DHT22;8373;48.110;11.522;2023-04-25T06:08:07;10.70;74.90
16521;DHT22;8373;48.110;11.522;2023-04-25T06:10:34;10.70;74.00
16521;DHT22;8373;48.110;11.522;2023-04-25T06:13:01;10.50;72.70
16521;DHT22;8373;48.110;11.522;2023-04-25T06:15:30;10.30;73.20
16521;DHT22;8373;48.110;11.522;2023-04-25T06:17:58;10.10;73.90
16521;DHT22;8373;48.110;11.522;2023-04-25T06:20:25;9.70;74.90
16521;DHT22;8373;48.110;11.522;2023-04-25T06:22:52;9.60;76.70
16521;DHT22;8373;48.110;11.522;2023-04-25T06:25:19;9.50;77.30
16521;DHT22;8373;48.110;11.522;2023-04-25T06:27:46;9.40;77.20
16521;DHT22;8373;48.110;11.522;2023-04-25T06:30:13;9.40;77.60
16521;DHT22;8373;48.110;11.522;2023-04-25T06:32:43;9.40;77.90
16521;DHT22;8373;48.110;11.522;2023-04-25T06:35:10;9.40;78.00
16521;DHT22;8373;48.110;11.522;2023-04-25T06:37:37;9.60;78.40
16521;DHT22;8373;48.110;11.522;2023-04-25T06:40:05;9.70;78.20
16521;DHT22;8373;48.110;11.522;2023-04-25T06:42:32;9.90;77.60
16521;DHT22;8373;48.110;11.522;2023-04-25T06:44:59;10.00;76.40
16521;DHT22;8373;48.110;11.522;2023-04-25T06:47:26;10.20;75.80
16521;DHT22;8373;48.110;11.522;2023-04-25T06:49:54;10.30;75.70
16521;DHT22;8373;48.110;11.522;2023-04-25T06:52:21;10.30;74.90
16521;DHT22;8373;48.110;11.522;2023-04-25T06:54:49;10.50;75.50
16521;DHT22;8373;48.110;11.522;2023-04-25T06:57:15;10.70;76.00
16521;DHT22;8373;48.110;11.522;2023-04-25T06:59:42;10.90;75.50
16521;DHT22;8373;48.110;11.522;2023-04-25T07:02:09;10.90;74.10
16521;DHT22;8373;48.110;11.522;2023-04-25T07:04:36;10.80;74.00
16521;DHT22;8373;48.110;11.522;2023-04-25T07:07:04;10.70;74.00
16521;DHT22;8373;48.110;11.522;2023-04-25T07:09:31;10.60;74.30
16521;DHT22;8373;48.110;11.522;2023-04-25T07:11:59;10.60;74.60
16521;DHT22;8373;48.110;11.522;2023-04-25T07:14:27;10.60;74.30
16521;DHT22;8373;48.110;11.522;2023-04-25T07:16:54;10.50;74.40
16521;DHT22;8373;48.110;11.522;2023-04-25T07:19:21;10.60;75.00
16521;DHT22;8373;48.110;11.522;2023-04-25T07:21:49;10.80;75.80
16521;DHT22;8373;48.110;11.522;2023-04-25T07:24:17;10.90;75.20
16521;DHT22;8373;48.110;11.522;2023-04-25T07:26:44;11.00;74.30
16521;DHT22;8373;48.110;11.522;2023-04-25T07:29:11;11.10;74.80
16521;DHT22;8373;48.110;11.522;2023-04-25T07:31:38;11.30;74.30
16521;DHT22;8373;48.110;11.522;2023-04-25T07:34:05;11.50;74.20
16521;DHT22;8373;48.110;11.522;2023-04-25T07:36:32;11.60;73.30
16521;DHT22;8373;48.110;11.522;2023-04-25T07:38:59;11.80;73.10
16521;DHT22;8373;48.110;11.522;2023-04-25T07:41:28;12.00;72.80
16521;DHT22;8373;48.110;11.522;2023-04-25T07:43:55;12.30;73.30
16521;DHT22;8373;48.110;11.522;2023-04-25T07:46:22;12.60;72.40
16521;DHT22;8373;48.110;11.522;2023-04-25T07:48:49;12.80;70.80
16521;DHT22;8373;48.110;11.522;2023-04-25T07:51:16;12.90;68.90
16521;DHT22;8373;48.110;11.522;2023-04-25T07:53:45;13.10;68.60
16521;DHT22;8373;48.110;11.522;2023-04-25T07:56:12;13.50;69.80
16521;DHT22;8373;48.110;11.522;2023-04-25T07:58:40;14.80;68.30
16521;DHT22;8373;48.110;11.522;2023-04-25T08:01:07;16.90;62.80
16521;DHT22;8373;48.110;11.522;2023-04-25T08:03:34;19.00;58.70
16521;DHT22;8373;48.110;11.522;2023-04-25T08:06:01;20.70;54.10
16521;DHT22;8373;48.110;11.522;2023-04-25T08:08:28;21.70;49.80
16521;DHT22;8373;48.110;11.522;2023-04-25T08:10:55;21.60;46.10
16521;DHT22;8373;48.110;11.522;2023-04-25T08:13:22;19.90;44.50
16521;DHT22;8373;48.110;11.522;2023-04-25T08:15:51;20.30;46.80
16521;DHT22;8373;48.110;11.522;2023-04-25T08:18:18;21.50;47.20
16521;DHT22;8373;48.110;11.522;2023-04-25T08:20:45;20.60;44.70
16521;DHT22;8373;48.110;11.522;2023-04-25T08:23:12;20.00;45.50
16521;DHT22;8373;48.110;11.522;2023-04-25T08:25:39;18.60;45.80
16521;DHT22;8373;48.110;11.522;2023-04-25T08:28:06;17.40;47.60
16521;DHT22;8373;48.110;11.522;2023-04-25T08:30:33;16.50;49.70
16521;DHT22;8373;48.110;11.522;2023-04-25T08:33:02;15.80;50.80
16521;DHT22;8373;48.110;11.522;2023-04-25T08:35:29;15.10;52.60
16521;DHT22;8373;48.110;11.522;2023-04-25T08:37:55;14.50;54.00
16521;DHT22;8373;48.110;11.522;2023-04-25T08:40:23;14.10;55.30
16521;DHT22;8373;48.110;11.522;2023-04-25T08:42:57;14.10;57.40
16521;DHT22;8373;48.110;11.522;2023-04-25T08:45:26;14.70;57.70
16521;DHT22;8373;48.110;11.522;2023-04-25T08:47:56;15.10;56.20
16521;DHT22;8373;48.110;11.522;2023-04-25T08:50:25;15.30;55.30
16521;DHT22;8373;48.110;11.522;2023-04-25T08:52:53;15.60;54.90
16521;DHT22;8373;48.110;11.522;2023-04-25T08:55:21;15.80;53.70
16521;DHT22;8373;48.110;11.522;2023-04-25T08:57:49;16.00;51.40
16521;DHT22;8373;48.110;11.522;2023-04-25T09:00:18;16.00;50.90
16521;DHT22;8373;48.110;11.522;2023-04-25T09:02:47;16.00;52.30
16521;DHT22;8373;48.110;11.522;2023-04-25T09:05:14;16.20;54.40
16521;DHT22;8373;48.110;11.522;2023-04-25T09:07:42;16.30;55.90
16521;DHT22;8373;48.110;11.522;2023-04-25T09:10:09;16.30;55.10
16521;DHT22;8373;48.110;11.522;2023-04-25T09:12:36;16.20;53.20
16521;DHT22;8373;48.110;11.522;2023-04-25T09:15:07;16.00;54.00
16521;DHT22;8373;48.110;11.522;2023-04-25T09:17:34;16.00;53.50
16521;DHT22;8373;48.110;11.522;2023-04-25T09:20:07;16.00;53.90
16521;DHT22;8373;48.110;11.522;2023-04-25T09:22:35;16.20;53.40
16521;DHT22;8373;48.110;11.522;2023-04-25T09:25:10;16.40;53.30
16521;DHT22;8373;48.110;11.522;2023-04-25T09:27:49;16.70;52.20
16521;DHT22;8373;48.110;11.522;2023-04-25T09:30:16;16.80;51.00
16521;DHT22;8373;48.110;11.522;2023-04-25T09:32:44;16.70;49.50
16521;DHT22;8373;48.110;11.522;2023-04-25T09:35:23;16.90;51.20
16521;DHT22;8373;48.110;11.522;2023-04-25T09:37:51;16.80;49.50
16521;DHT22;8373;48.110;11.522;2023-04-25T09:40:19;16.60;50.40
16521;DHT22;8373;48.110;11.522;2023-04-25T09:42:46;16.50;51.30
16521;DHT22;8373;48.110;11.522;2023-04-25T09:45:13;16.40;50.40
16521;DHT22;8373;48.110;11.522;2023-04-25T09:47:40;16.50;50.10
16521;DHT22;8373;48.110;11.522;2023-04-25T09:50:14;16.50;50.10
16521;DHT22;8373;48.110;11.522;2023-04-25T09:52:41;16.60;48.80
16521;DHT22;8373;48.110;11.522;2023-04-25T09:55:08;16.60;49.50
16521;DHT22;8373;48.110;11.522;2023-04-25T09:57:37;16.60;48.40
16521;DHT22;8373;48.110;11.522;2023-04-25T10:00:06;16.60;48.10
16521;DHT22;8373;48.110;11.522;2023-04-25T10:02:38;16.40;47.90
16521;DHT22;8373;48.110;11.522;2023-04-25T10:05:12;16.30;48.30
16521;DHT22;8373;48.110;11.522;2023-04-25T10:07:40;16.10;49.10
16521;DHT22;8373;48.110;11.522;2023-04-25T10:10:08;16.10;49.80
16521;DHT22;8373;48.110;11.522;2023-04-25T10:12:37;16.10;50.00
16521;DHT22;8373;48.110;11.522;2023-04-25T10:15:06;16.10;49.20
16521;DHT22;8373;48.110;11.522;2023-04-25T10:17:35;16.40;50.50
16521;DHT22;8373;48.110;11.522;2023-04-25T10:20:03;16.80;50.60
16521;DHT22;8373;48.110;11.522;2023-04-25T10:22:35;17.20;49.80
16521;DHT22;8373;48.110;11.522;2023-04-25T10:25:04;17.40;48.20
16521;DHT22;8373;48.110;11.522;2023-04-25T10:27:32;17.70;47.30
16521;DHT22;8373;48.110;11.522;2023-04-25T10:30:04;17.60;44.70
16521;DHT22;8373;48.110;11.522;2023-04-25T10:32:32;17.30;44.10
16521;DHT22;8373;48.110;11.522;2023-04-25T10:35:10;17.20;44.90
16521;DHT22;8373;48.110;11.522;2023-04-25T10:37:37;16.50;44.70
16521;DHT22;8373;48.110;11.522;2023-04-25T10:40:09;15.40;46.90
16521;DHT22;8373;48.110;11.522;2023-04-25T10:42:36;14.80;47.60
16521;DHT22;8373;48.110;11.522;2023-04-25T10:45:07;14.40;49.30
16521;DHT22;8373;48.110;11.522;2023-04-25T10:47:43;14.10;49.70
16521;DHT22;8373;48.110;11.522;2023-04-25T10:50:11;13.80;50.90
16521;DHT22;8373;48.110;11.522;2023-04-25T10:52:39;13.50;53.90
16521;DHT22;8373;48.110;11.522;2023-04-25T10:55:07;13.40;54.60
16521;DHT22;8373;48.110;11.522;2023-04-25T10:57:39;13.30;55.10
16521;DHT22;8373;48.110;11.522;2023-04-25T11:00:12;13.20;56.00
16521;DHT22;8373;48.110;11.522;2023-04-25T11:02:45;13.20;56.80
16521;DHT22;8373;48.110;11.522;2023-04-25T11:05:28;13.10;58.00
16521;DHT22;8373;48.110;11.522;2023-04-25T11:07:56;13.20;59.00
16521;DHT22;8373;48.110;11.522;2023-04-25T11:10:25;13.50;59.00
16521;DHT22;8373;48.110;11.522;2023-04-25T11:12:52;13.70;58.10
16521;DHT22;8373;48.110;11.522;2023-04-25T11:15:21;13.80;57.10
16521;DHT22;8373;48.110;11.522;2023-04-25T11:17:50;13.70;55.70
16521;DHT22;8373;48.110;11.522;2023-04-25T11:20:17;13.70;55.20
16521;DHT22;8373;48.110;11.522;2023-04-25T11:22:45;13.60;53.80
16521;DHT22;8373;48.110;11.522;2023-04-25T11:25:15;13.50;53.30
16521;DHT22;8373;48.110;11.522;2023-04-25T11:27:51;13.30;52.20
16521;DHT22;8373;48.110;11.522;2023-04-25T11:30:21;13.00;52.50
16521;DHT22;8373;48.110;11.522;2023-04-25T11:32:48;12.80;52.90
16521;DHT22;8373;48.110;11.522;2023-04-25T11:35:16;12.60;54.30
16521;DHT22;8373;48.110;11.522;2023-04-25T11:37:43;12.50;55.30
16521;DHT22;8373;48.110;11.522;2023-04-25T11:40:11;12.40;56.30
16521;DHT22;8373;48.110;11.522;2023-04-25T11:42:39;12.20;56.70
16521;DHT22;8373;48.110;11.522;2023-04-25T11:45:07;12.10;58.10
16521;DHT22;8373;48.110;11.522;2023-04-25T11:47:36;11.90;60.00
16521;DHT22;8373;48.110;11.522;2023-04-25T11:50:05;11.90;62.30
16521;DHT22;8373;48.110;11.522;2023-04-25T11:52:37;11.70;63.10
16521;DHT22;8373;48.110;11.522;2023-04-25T11:55:06;11.60;64.10
16521;DHT22;8373;48.110;11.522;2023-04-25T11:57:33;11.50;64.90
16521;DHT22;8373;48.110;11.522;2023-04-25T12:00:11;11.50;65.20
16521;DHT22;8373;48.110;11.522;2023-04-25T12:02:44;11.50;65.00
16521;DHT22;8373;48.110;11.522;2023-04-25T12:05:12;11.50;64.80
16521;DHT22;8373;48.110;11.522;2023-04-25T12:07:39;11.30;64.70
16521;DHT22;8373;48.110;11.522;2023-04-25T12:10:09;11.30;65.20
16521;DHT22;8373;48.110;11.522;2023-04-25T12:12:38;11.30;66.10
16521;DHT22;8373;48.110;11.522;2023-04-25T12:15:12;11.40;66.10
16521;DHT22;8373;48.110;11.522;2023-04-25T12:17:44;11.40;66.30
16521;DHT22;8373;48.110;11.522;2023-04-25T12:20:13;11.50;66.40
16521;DHT22;8373;48.110;11.522;2023-04-25T12:22:41;11.30;65.30
16521;DHT22;8373;48.110;11.522;2023-04-25T12:25:11;11.30;66.20
16521;DHT22;8373;48.110;11.522;2023-04-25T12:27:39;11.30;66.80
16521;DHT22;8373;48.110;11.522;2023-04-25T12:30:08;11.40;66.50
16521;DHT22;8373;48.110;11.522;2023-04-25T12:32:36;11.50;66.80
16521;DHT22;8373;48.110;11.522;2023-04-25T12:35:05;11.60;66.70
16521;DHT22;8373;48.110;11.522;2023-04-25T12:37:33;11.70;65.80
16521;DHT22;8373;48.110;11.522;2023-04-25T12:40:00;11.70;66.20
16521;DHT22;8373;48.110;11.522;2023-04-25T12:42:27;11.60;66.00
16521;DHT22;8373;48.110;11.522;2023-04-25T12:44:53;11.70;67.70
16521;DHT22;8373;48.110;11.522;2023-04-25T12:47:20;11.80;67.10
16521;DHT22;8373;48.110;11.522;2023-04-25T12:49:47;11.80;65.50
16521;DHT22;8373;48.110;11.522;2023-04-25T12:52:16;11.60;65.80
16521;DHT22;8373;48.110;11.522;2023-04-25T12:54:43;11.60;66.90
16521;DHT22;8373;48.110;11.522;2023-04-25T12:57:09;11.50;67.30
16521;DHT22;8373;48.110;11.522;2023-04-25T12:59:36;11.70;67.90
16521;DHT22;8373;48.110;11.522;2023-04-25T13:02:03;11.80;68.20
16521;DHT22;8373;48.110;11.522;2023-04-25T13:04:30;11.90;66.70
16521;DHT22;8373;48.110;11.522;2023-04-25T13:06:57;11.90;65.80
16521;DHT22;8373;48.110;11.522;2023-04-25T13:09:26;12.00;65.90
16521;DHT22;8373;48.110;11.522;2023-04-25T13:11:52;12.10;66.90
16521;DHT22;8373;48.110;11.522;2023-04-25T13:14:19;12.20;67.20
16521;DHT22;8373;48.110;11.522;2023-04-25T13:16:46;12.10;66.10
16521;DHT22;8373;48.110;11.522;2023-04-25T13:19:14;12.00;66.10
16521;DHT22;8373;48.110;11.522;2023-04-25T13:21:41;11.90;66.70
16521;DHT22;8373;48.110;11.522;2023-04-25T13:24:07;11.90;67.20
16521;DHT22;8373;48.110;11.522;2023-04-25T13:26:36;11.80;67.50
16521;DHT22;8373;48.110;11.522;2023-04-25T13:29:03;11.60;68.20
16521;DHT22;8373;48.110;11.522;2023-04-25T13:33:57;11.80;70.00
16521;DHT22;8373;48.110;11.522;2023-04-25T13:36:24;11.90;69.40
16521;DHT22;8373;48.110;11.522;2023-04-25T13:38:51;11.80;68.80
16521;DHT22;8373;48.110;11.522;2023-04-25T13:41:18;11.90;69.50
16521;DHT22;8373;48.110;11.522;2023-04-25T13:43:47;11.90;69.40
16521;DHT22;8373;48.110;11.522;2023-04-25T13:46:14;11.80;69.10
16521;DHT22;8373;48.110;11.522;2023-04-25T13:48:42;11.50;69.40
16521;DHT22;8373;48.110;11.522;2023-04-25T13:51:14;11.30;71.60
16521;DHT22;8373;48.110;11.522;2023-04-25T13:53:43;11.40;72.50
16521;DHT22;8373;48.110;11.522;2023-04-25T13:56:11;11.40;71.30
16521;DHT22;8373;48.110;11.522;2023-04-25T13:58:38;11.40;70.40
16521;DHT22;8373;48.110;11.522;2023-04-25T14:01:06;11.30;70.20
16521;DHT22;8373;48.110;11.522;2023-04-25T14:03:33;11.30;69.90
16521;DHT22;8373;48.110;11.522;2023-04-25T14:06:00;11.30;70.80
16521;DHT22;8373;48.110;11.522;2023-04-25T14:08:27;11.20;70.50
16521;DHT22;8373;48.110;11.522;2023-04-25T14:10:55;11.10;70.70
16521;DHT22;8373;48.110;11.522;2023-04-25T14:13:22;11.10;71.80
16521;DHT22;8373;48.110;11.522;2023-04-25T14:15:50;11.10;71.10
16521;DHT22;8373;48.110;11.522;2023-04-25T14:18:18;11.10;70.70
16521;DHT22;8373;48.110;11.522;2023-04-25T14:20:46;11.00;71.30
16521;DHT22;8373;48.110;11.522;2023-04-25T14:23:13;11.10;72.10
16521;DHT22;8373;48.110;11.522;2023-04-25T14:25:40;11.20;72.10
16521;DHT22;8373;48.110;11.522;2023-04-25T14:28:09;11.30;71.90
16521;DHT22;8373;48.110;11.522;2023-04-25T14:30:35;11.40;72.80
16521;DHT22;8373;48.110;11.522;2023-04-25T14:33:02;11.60;72.30
16521;DHT22;8373;48.110;11.522;2023-04-25T14:35:32;11.90;72.30
16521;DHT22;8373;48.110;11.522;2023-04-25T14:37:59;12.20;71.90
16521;DHT22;8373;48.110;11.522;2023-04-25T14:40:26;12.30;70.60
16521;DHT22;8373;48.110;11.522;2023-04-25T14:42:53;12.30;68.50
16521;DHT22;8373;48.110;11.522;2023-04-25T14:45:20;12.30;69.00
16521;DHT22;8373;48.110;11.522;2023-04-25T14:47:47;12.30;69.30
16521;DHT22;8373;48.110;11.522;2023-04-25T14:50:14;12.20;68.40
16521;DHT22;8373;48.110;11.522;2023-04-25T14:52:42;12.30;68.40
16521;DHT22;8373;48.110;11.522;2023-04-25T14:55:10;12.30;68.50
16521;DHT22;8373;48.110;11.522;2023-04-25T14:57:37;12.20;68.20
16521;DHT22;8373;48.110;11.522;2023-04-25T15:00:05;12.10;69.00
16521;DHT22;8373;48.110;11.522;2023-04-25T15:02:35;12.00;67.90
16521;DHT22;8373;48.110;11.522;2023-04-25T15:05:02;11.80;69.00
16521;DHT22;8373;48.110;11.522;2023-04-25T15:07:29;11.70;68.60
16521;DHT22;8373;48.110;11.522;2023-04-25T15:09:58;11.60;69.20
16521;DHT22;8373;48.110;11.522;2023-04-25T15:12:25;11.60;70.10
16521;DHT22;8373;48.110;11.522;2023-04-25T15:14:54;11.80;71.20
16521;DHT22;8373;48.110;11.522;2023-04-25T15:17:21;11.90;70.70
16521;DHT22;8373;48.110;11.522;2023-04-25T15:19:48;11.80;69.50
16521;DHT22;8373;48.110;11.522;2023-04-25T15:22:15;11.80;70.00
16521;DHT22;8373;48.110;11.522;2023-04-25T15:24:42;11.70;70.30
16521;DHT22;8373;48.110;11.522;2023-04-25T15:27:10;11.70;70.30
16521;DHT22;8373;48.110;11.522;2023-04-25T15:29:37;11.70;69.70
16521;DHT22;8373;48.110;11.522;2023-04-25T15:32:06;11.50;69.70
16521;DHT22;8373;48.110;11.522;2023-04-25T15:34:33;11.40;71.10
16521;DHT22;8373;48.110;11.522;2023-04-25T15:37:00;11.30;71.40
16521;DHT22;8373;48.110;11.522;2023-04-25T15:39:27;11.20;71.60